sensor_id;sensor_type;location;lat;lon;timestamp;P1;durP1;ratioP1;P2;durP2;ratioP2
1296;SDS011;641;48.492;9.184;2023-05-07T00:02:24;10.00;;;4.57;;
1296;SDS011;641;48.492;9.184;2023-05-07T00:04:50;12.77;;;5.33;;
1296;SDS011;641;48.492;9.184;2023-05-07T00:07:17;13.73;;;4.77;;
1296;SDS011;641;48.492;9.184;2023-05-07T00:09:42;8.97;;;3.70;;
1296;SDS011;641;48.492;9.184;2023-05-07T00:12:08;10.07;;;3.60;;
1296;SDS011;641;48.492;9.184;2023-05-07T00:14:34;12.40;;;4.30;;
1296;SDS011;641;48.492;9.184;2023-05-07T00:17:00;8.67;;;3.80;;
1296;SDS011;641;48.492;9.184;2023-05-07T00:19:25;9.70;;;4.27;;
1296;SDS011;641;48.492;9.184;2023-05-07T00:21:51;10.40;;;4.60;;
1296;SDS011;641;48.492;9.184;2023-05-07T00:24:18;10.37;;;5.20;;
1296;SDS011;641;48.492;9.184;2023-05-07T00:26:44;11.70;;;5.10;;
1296;SDS011;641;48.492;9.184;2023-05-07T00:29:10;13.47;;;6.00;;
1296;SDS011;641;48.492;9.184;2023-05-07T00:31:36;10.50;;;5.83;;
1296;SDS011;641;48.492;9.184;2023-05-07T00:34:01;19.20;;;10.03;;
1296;SDS011;641;48.492;9.184;2023-05-07T00:36:27;16.20;;;8.53;;
1296;SDS011;641;48.492;9.184;2023-05-07T00:38:53;15.20;;;8.70;;
1296;SDS011;641;48.492;9.184;2023-05-07T00:41:20;14.93;;;7.60;;
1296;SDS011;641;48.492;9.184;2023-05-07T00:43:46;11.20;;;5.30;;
1296;SDS011;641;48.492;9.184;2023-05-07T00:46:12;22.10;;;14.97;;
1296;SDS011;641;48.492;9.184;2023-05-07T00:48:38;12.20;;;5.60;;
1296;SDS011;641;48.492;9.184;2023-05-07T00:51:05;15.97;;;9.27;;
1296;SDS011;641;48.492;9.184;2023-05-07T00:53:30;20.23;;;11.13;;
1296;SDS011;641;48.492;9.184;2023-05-07T00:55:56;18.40;;;9.90;;
1296;SDS011;641;48.492;9.184;2023-05-07T00:58:22;15.70;;;8.77;;
1296;SDS011;641;48.492;9.184;2023-05-07T01:00:49;10.90;;;5.83;;
1296;SDS011;641;48.492;9.184;2023-05-07T01:03:15;11.20;;;6.30;;
1296;SDS011;641;48.492;9.184;2023-05-07T01:05:40;12.00;;;5.60;;
1296;SDS011;641;48.492;9.184;2023-05-07T01:08:07;11.93;;;5.20;;
1296;SDS011;641;48.492;9.184;2023-05-07T01:10:33;11.23;;;6.60;;
1296;SDS011;641;48.492;9.184;2023-05-07T01:12:59;15.00;;;7.13;;
1296;SDS011;641;48.492;9.184;2023-05-07T01:15:25;10.30;;;5.73;;
1296;SDS011;641;48.492;9.184;2023-05-07T01:17:51;9.23;;;4.70;;
1296;SDS011;641;48.492;9.184;2023-05-07T01:20:17;10.43;;;5.00;;
1296;SDS011;641;48.492;9.184;2023-05-07T01:22:43;8.77;;;4.00;;
1296;SDS011;641;48.492;9.184;2023-05-07T01:25:10;14.47;;;4.53;;
1296;SDS011;641;48.492;9.184;2023-05-07T01:27:36;9.47;;;4.80;;
1296;SDS011;641;48.492;9.184;2023-05-07T01:30:02;11.13;;;4.57;;
1296;SDS011;641;48.492;9.184;2023-05-07T01:35:05;12.90;;;4.07;;
1296;SDS011;641;48.492;9.184;2023-05-07T01:37:35;9.87;;;4.00;;
1296;SDS011;641;48.492;9.184;2023-05-07T01:40:01;10.50;;;4.13;;
1296;SDS011;641;48.492;9.184;2023-05-07T01:42:28;11.43;;;4.67;;
1296;SDS011;641;48.492;9.184;2023-05-07T01:44:54;10.73;;;4.43;;
1296;SDS011;641;48.492;9.184;2023-05-07T01:47:20;8.60;;;4.13;;
1296;SDS011;641;48.492;9.184;2023-05-07T01:49:46;9.40;;;3.93;;
1296;SDS011;641;48.492;9.184;2023-05-07T01:52:12;8.97;;;4.27;;
1296;SDS011;641;48.492;9.184;2023-05-07T01:54:38;9.33;;;4.40;;
1296;SDS011;641;48.492;9.184;2023-05-07T01:57:04;9.90;;;4.23;;
1296;SDS011;641;48.492;9.184;2023-05-07T01:59:30;10.20;;;3.80;;
1296;SDS011;641;48.492;9.184;2023-05-07T02:01:56;12.70;;;4.47;;
1296;SDS011;641;48.492;9.184;2023-05-07T02:04:22;8.40;;;3.80;;
1296;SDS011;641;48.492;9.184;2023-05-07T02:06:48;10.93;;;4.57;;
1296;SDS011;641;48.492;9.184;2023-05-07T02:09:15;9.13;;;3.87;;
1296;SDS011;641;48.492;9.184;2023-05-07T02:11:41;9.40;;;4.87;;
1296;SDS011;641;48.492;9.184;2023-05-07T02:14:07;10.27;;;4.13;;
1296;SDS011;641;48.492;9.184;2023-05-07T02:16:33;11.53;;;4.90;;
1296;SDS011;641;48.492;9.184;2023-05-07T02:18:59;11.40;;;6.27;;
1296;SDS011;641;48.492;9.184;2023-05-07T02:21:25;9.13;;;4.47;;
1296;SDS011;641;48.492;9.184;2023-05-07T02:23:51;8.90;;;4.17;;
1296;SDS011;641;48.492;9.184;2023-05-07T02:26:17;10.47;;;4.57;;
1296;SDS011;641;48.492;9.184;2023-05-07T02:28:43;8.93;;;4.27;;
1296;SDS011;641;48.492;9.184;2023-05-07T02:31:10;8.77;;;3.93;;
1296;SDS011;641;48.492;9.184;2023-05-07T02:33:36;9.97;;;4.03;;
1296;SDS011;641;48.492;9.184;2023-05-07T02:36:08;10.20;;;3.90;;
1296;SDS011;641;48.492;9.184;2023-05-07T02:38:34;10.37;;;4.37;;
1296;SDS011;641;48.492;9.184;2023-05-07T02:41:00;10.00;;;4.13;;
1296;SDS011;641;48.492;9.184;2023-05-07T02:43:26;9.87;;;4.07;;
1296;SDS011;641;48.492;9.184;2023-05-07T02:46:04;10.07;;;4.80;;
1296;SDS011;641;48.492;9.184;2023-05-07T02:48:31;9.00;;;4.00;;
1296;SDS011;641;48.492;9.184;2023-05-07T02:50:57;9.97;;;4.10;;
1296;SDS011;641;48.492;9.184;2023-05-07T02:53:24;9.93;;;4.63;;
1296;SDS011;641;48.492;9.184;2023-05-07T02:55:52;12.60;;;4.90;;
1296;SDS011;641;48.492;9.184;2023-05-07T02:58:18;14.80;;;5.33;;
1296;SDS011;641;48.492;9.184;2023-05-07T03:00:43;9.67;;;4.73;;
1296;SDS011;641;48.492;9.184;2023-05-07T03:03:09;9.70;;;4.50;;
1296;SDS011;641;48.492;9.184;2023-05-07T03:05:35;13.83;;;5.07;;
1296;SDS011;641;48.492;9.184;2023-05-07T03:08:02;11.73;;;5.10;;
1296;SDS011;641;48.492;9.184;2023-05-07T03:10:29;11.20;;;5.20;;
1296;SDS011;641;48.492;9.184;2023-05-07T03:12:55;11.40;;;5.10;;
1296;SDS011;641;48.492;9.184;2023-05-07T03:15:21;12.40;;;5.40;;
1296;SDS011;641;48.492;9.184;2023-05-07T03:17:47;11.97;;;4.60;;
1296;SDS011;641;48.492;9.184;2023-05-07T03:20:12;13.23;;;5.30;;
1296;SDS011;641;48.492;9.184;2023-05-07T03:22:38;11.00;;;4.60;;
1296;SDS011;641;48.492;9.184;2023-05-07T03:25:04;10.20;;;5.20;;
1296;SDS011;641;48.492;9.184;2023-05-07T03:27:30;15.23;;;5.53;;
1296;SDS011;641;48.492;9.184;2023-05-07T03:29:56;8.80;;;4.70;;
1296;SDS011;641;48.492;9.184;2023-05-07T03:32:21;10.20;;;5.33;;
1296;SDS011;641;48.492;9.184;2023-05-07T03:34:47;10.20;;;5.03;;
1296;SDS011;641;48.492;9.184;2023-05-07T03:37:12;11.93;;;5.50;;
1296;SDS011;641;48.492;9.184;2023-05-07T03:39:38;17.97;;;5.40;;
1296;SDS011;641;48.492;9.184;2023-05-07T03:42:04;11.90;;;5.57;;
1296;SDS011;641;48.492;9.184;2023-05-07T03:44:29;12.57;;;5.70;;
1296;SDS011;641;48.492;9.184;2023-05-07T03:46:55;13.33;;;5.67;;
1296;SDS011;641;48.492;9.184;2023-05-07T03:49:21;14.23;;;5.40;;
1296;SDS011;641;48.492;9.184;2023-05-07T03:51:46;13.50;;;4.77;;
1296;SDS011;641;48.492;9.184;2023-05-07T03:54:12;10.90;;;4.90;;
1296;SDS011;641;48.492;9.184;2023-05-07T03:56:38;14.23;;;5.53;;
1296;SDS011;641;48.492;9.184;2023-05-07T03:59:04;10.53;;;5.17;;
1296;SDS011;641;48.492;9.184;2023-05-07T04:01:30;8.70;;;4.10;;
1296;SDS011;641;48.492;9.184;2023-05-07T04:03:56;10.27;;;5.30;;
1296;SDS011;641;48.492;9.184;2023-05-07T04:06:22;10.67;;;4.40;;
1296;SDS011;641;48.492;9.184;2023-05-07T04:08:49;13.17;;;5.20;;
1296;SDS011;641;48.492;9.184;2023-05-07T04:11:15;11.73;;;5.60;;
1296;SDS011;641;48.492;9.184;2023-05-07T04:13:40;9.40;;;4.43;;
1296;SDS011;641;48.492;9.184;2023-05-07T04:16:06;14.70;;;5.07;;
1296;SDS011;641;48.492;9.184;2023-05-07T04:18:31;11.77;;;4.60;;
1296;SDS011;641;48.492;9.184;2023-05-07T04:20:57;9.70;;;4.43;;
1296;SDS011;641;48.492;9.184;2023-05-07T04:23:23;11.43;;;5.00;;
1296;SDS011;641;48.492;9.184;2023-05-07T04:25:49;10.20;;;4.70;;
1296;SDS011;641;48.492;9.184;2023-05-07T04:28:15;9.50;;;4.50;;
1296;SDS011;641;48.492;9.184;2023-05-07T04:30:41;9.67;;;5.13;;
1296;SDS011;641;48.492;9.184;2023-05-07T04:33:07;13.33;;;4.60;;
1296;SDS011;641;48.492;9.184;2023-05-07T04:35:33;13.93;;;5.03;;
1296;SDS011;641;48.492;9.184;2023-05-07T04:37:58;10.10;;;4.83;;
1296;SDS011;641;48.492;9.184;2023-05-07T04:40:24;11.80;;;5.20;;
1296;SDS011;641;48.492;9.184;2023-05-07T04:42:50;9.67;;;5.43;;
1296;SDS011;641;48.492;9.184;2023-05-07T04:45:16;12.63;;;6.20;;
1296;SDS011;641;48.492;9.184;2023-05-07T04:47:42;12.07;;;5.77;;
1296;SDS011;641;48.492;9.184;2023-05-07T04:50:07;11.20;;;6.10;;
1296;SDS011;641;48.492;9.184;2023-05-07T04:52:34;9.80;;;5.90;;
1296;SDS011;641;48.492;9.184;2023-05-07T04:55:00;10.97;;;4.90;;
1296;SDS011;641;48.492;9.184;2023-05-07T04:57:26;10.10;;;5.30;;
1296;SDS011;641;48.492;9.184;2023-05-07T04:59:52;11.50;;;5.40;;
1296;SDS011;641;48.492;9.184;2023-05-07T05:02:18;9.63;;;4.77;;
1296;SDS011;641;48.492;9.184;2023-05-07T05:04:45;9.00;;;4.30;;
1296;SDS011;641;48.492;9.184;2023-05-07T05:07:10;12.10;;;5.57;;
1296;SDS011;641;48.492;9.184;2023-05-07T05:09:36;14.00;;;4.83;;
1296;SDS011;641;48.492;9.184;2023-05-07T05:12:02;12.53;;;4.40;;
1296;SDS011;641;48.492;9.184;2023-05-07T05:14:29;9.77;;;4.50;;
1296;SDS011;641;48.492;9.184;2023-05-07T05:16:54;10.07;;;5.13;;
1296;SDS011;641;48.492;9.184;2023-05-07T05:19:20;9.97;;;4.87;;
1296;SDS011;641;48.492;9.184;2023-05-07T05:21:46;10.50;;;5.60;;
1296;SDS011;641;48.492;9.184;2023-05-07T05:24:12;11.70;;;5.00;;
1296;SDS011;641;48.492;9.184;2023-05-07T05:26:37;10.50;;;5.23;;
1296;SDS011;641;48.492;9.184;2023-05-07T05:29:03;11.33;;;5.20;;
1296;SDS011;641;48.492;9.184;2023-05-07T05:31:29;12.30;;;5.77;;
1296;SDS011;641;48.492;9.184;2023-05-07T05:33:55;12.17;;;5.20;;
1296;SDS011;641;48.492;9.184;2023-05-07T05:36:21;9.07;;;4.70;;
1296;SDS011;641;48.492;9.184;2023-05-07T05:38:47;11.03;;;5.17;;
1296;SDS011;641;48.492;9.184;2023-05-07T05:41:12;8.80;;;4.37;;
1296;SDS011;641;48.492;9.184;2023-05-07T05:43:38;10.47;;;4.70;;
1296;SDS011;641;48.492;9.184;2023-05-07T05:46:05;9.87;;;4.90;;
1296;SDS011;641;48.492;9.184;2023-05-07T05:48:31;12.67;;;5.13;;
1296;SDS011;641;48.492;9.184;2023-05-07T05:50:56;9.90;;;5.40;;
1296;SDS011;641;48.492;9.184;2023-05-07T05:53:22;8.97;;;4.70;;
1296;SDS011;641;48.492;9.184;2023-05-07T05:55:47;11.53;;;5.10;;
1296;SDS011;641;48.492;9.184;2023-05-07T05:58:13;10.20;;;5.00;;
1296;SDS011;641;48.492;9.184;2023-05-07T06:00:40;9.00;;;5.20;;
1296;SDS011;641;48.492;9.184;2023-05-07T06:03:05;11.60;;;5.20;;
1296;SDS011;641;48.492;9.184;2023-05-07T06:05:31;10.47;;;5.03;;
1296;SDS011;641;48.492;9.184;2023-05-07T06:07:56;11.87;;;4.60;;
1296;SDS011;641;48.492;9.184;2023-05-07T06:10:22;11.90;;;4.70;;
1296;SDS011;641;48.492;9.184;2023-05-07T06:12:49;8.57;;;4.13;;
1296;SDS011;641;48.492;9.184;2023-05-07T06:15:14;9.00;;;4.40;;
1296;SDS011;641;48.492;9.184;2023-05-07T06:17:40;10.50;;;5.33;;
1296;SDS011;641;48.492;9.184;2023-05-07T06:20:05;9.47;;;4.23;;
1296;SDS011;641;48.492;9.184;2023-05-07T06:22:33;9.60;;;4.67;;
1296;SDS011;641;48.492;9.184;2023-05-07T06:24:58;9.47;;;4.40;;
1296;SDS011;641;48.492;9.184;2023-05-07T06:27:24;9.13;;;4.43;;
1296;SDS011;641;48.492;9.184;2023-05-07T06:29:50;9.23;;;4.30;;
1296;SDS011;641;48.492;9.184;2023-05-07T06:32:15;10.30;;;4.70;;
1296;SDS011;641;48.492;9.184;2023-05-07T06:34:42;10.83;;;4.77;;
1296;SDS011;641;48.492;9.184;2023-05-07T06:37:07;13.73;;;5.67;;
1296;SDS011;641;48.492;9.184;2023-05-07T06:39:33;8.10;;;3.77;;
1296;SDS011;641;48.492;9.184;2023-05-07T06:41:59;12.10;;;4.97;;
1296;SDS011;641;48.492;9.184;2023-05-07T06:44:25;8.50;;;4.17;;
1296;SDS011;641;48.492;9.184;2023-05-07T06:46:51;8.23;;;3.87;;
1296;SDS011;641;48.492;9.184;2023-05-07T06:49:16;10.07;;;4.47;;
1296;SDS011;641;48.492;9.184;2023-05-07T06:51:42;10.27;;;4.37;;
1296;SDS011;641;48.492;9.184;2023-05-07T06:54:07;9.73;;;4.10;;
1296;SDS011;641;48.492;9.184;2023-05-07T06:56:33;8.60;;;4.40;;
1296;SDS011;641;48.492;9.184;2023-05-07T06:58:59;9.57;;;4.03;;
1296;SDS011;641;48.492;9.184;2023-05-07T07:01:26;9.10;;;3.97;;
1296;SDS011;641;48.492;9.184;2023-05-07T07:03:51;10.77;;;4.50;;
1296;SDS011;641;48.492;9.184;2023-05-07T07:06:17;9.20;;;3.87;;
1296;SDS011;641;48.492;9.184;2023-05-07T07:08:42;11.73;;;5.00;;
1296;SDS011;641;48.492;9.184;2023-05-07T07:11:10;9.87;;;4.30;;
1296;SDS011;641;48.492;9.184;2023-05-07T07:13:35;12.30;;;4.53;;
1296;SDS011;641;48.492;9.184;2023-05-07T07:16:01;8.67;;;4.10;;
1296;SDS011;641;48.492;9.184;2023-05-07T07:18:27;12.73;;;4.57;;
1296;SDS011;641;48.492;9.184;2023-05-07T07:20:53;9.60;;;4.17;;
1296;SDS011;641;48.492;9.184;2023-05-07T07:23:19;8.60;;;3.77;;
1296;SDS011;641;48.492;9.184;2023-05-07T07:25:44;8.70;;;3.90;;
1296;SDS011;641;48.492;9.184;2023-05-07T07:28:10;13.30;;;4.30;;
1296;SDS011;641;48.492;9.184;2023-05-07T07:30:36;9.70;;;4.07;;
1296;SDS011;641;48.492;9.184;2023-05-07T07:33:02;9.43;;;3.90;;
1296;SDS011;641;48.492;9.184;2023-05-07T07:35:31;7.97;;;3.47;;
1296;SDS011;641;48.492;9.184;2023-05-07T07:37:57;8.47;;;3.87;;
1296;SDS011;641;48.492;9.184;2023-05-07T07:40:23;11.57;;;4.77;;
1296;SDS011;641;48.492;9.184;2023-05-07T07:42:50;11.77;;;4.17;;
1296;SDS011;641;48.492;9.184;2023-05-07T07:45:18;9.13;;;3.77;;
1296;SDS011;641;48.492;9.184;2023-05-07T07:47:44;9.80;;;4.40;;
1296;SDS011;641;48.492;9.184;2023-05-07T07:50:10;9.47;;;4.10;;
1296;SDS011;641;48.492;9.184;2023-05-07T07:52:36;8.40;;;3.70;;
1296;SDS011;641;48.492;9.184;2023-05-07T07:55:01;10.20;;;3.80;;
1296;SDS011;641;48.492;9.184;2023-05-07T07:57:28;13.50;;;4.17;;
1296;SDS011;641;48.492;9.184;2023-05-07T07:59:53;8.87;;;3.73;;
1296;SDS011;641;48.492;9.184;2023-05-07T08:02:19;9.97;;;3.83;;
1296;SDS011;641;48.492;9.184;2023-05-07T08:04:45;10.97;;;3.70;;
1296;SDS011;641;48.492;9.184;2023-05-07T08:07:10;9.13;;;3.40;;
1296;SDS011;641;48.492;9.184;2023-05-07T08:09:39;10.87;;;3.57;;
1296;SDS011;641;48.492;9.184;2023-05-07T08:12:05;10.10;;;3.70;;
1296;SDS011;641;48.492;9.184;2023-05-07T08:14:32;9.30;;;3.80;;
1296;SDS011;641;48.492;9.184;2023-05-07T08:16:58;12.30;;;3.30;;
1296;SDS011;641;48.492;9.184;2023-05-07T08:19:24;9.50;;;3.73;;
1296;SDS011;641;48.492;9.184;2023-05-07T08:21:49;11.13;;;3.70;;
1296;SDS011;641;48.492;9.184;2023-05-07T08:24:15;7.90;;;3.63;;
1296;SDS011;641;48.492;9.184;2023-05-07T08:26:41;7.90;;;3.47;;
1296;SDS011;641;48.492;9.184;2023-05-07T08:29:07;8.07;;;3.50;;
1296;SDS011;641;48.492;9.184;2023-05-07T08:31:32;13.37;;;4.10;;
1296;SDS011;641;48.492;9.184;2023-05-07T08:33:58;8.67;;;3.47;;
1296;SDS011;641;48.492;9.184;2023-05-07T08:36:24;9.03;;;3.73;;
1296;SDS011;641;48.492;9.184;2023-05-07T08:38:50;11.10;;;3.90;;
1296;SDS011;641;48.492;9.184;2023-05-07T08:41:16;9.00;;;3.80;;
1296;SDS011;641;48.492;9.184;2023-05-07T08:43:42;9.33;;;3.70;;
1296;SDS011;641;48.492;9.184;2023-05-07T08:46:13;9.17;;;4.50;;
1296;SDS011;641;48.492;9.184;2023-05-07T08:48:47;10.30;;;3.80;;
1296;SDS011;641;48.492;9.184;2023-05-07T08:51:15;8.80;;;4.00;;
1296;SDS011;641;48.492;9.184;2023-05-07T08:53:42;9.40;;;4.27;;
1296;SDS011;641;48.492;9.184;2023-05-07T08:56:08;9.60;;;3.70;;
1296;SDS011;641;48.492;9.184;2023-05-07T08:58:34;10.00;;;4.30;;
1296;SDS011;641;48.492;9.184;2023-05-07T09:01:07;9.50;;;3.53;;
1296;SDS011;641;48.492;9.184;2023-05-07T09:03:34;9.00;;;3.80;;
1296;SDS011;641;48.492;9.184;2023-05-07T09:06:01;9.90;;;4.23;;
1296;SDS011;641;48.492;9.184;2023-05-07T09:08:27;10.47;;;3.90;;
1296;SDS011;641;48.492;9.184;2023-05-07T09:10:53;8.90;;;4.10;;
1296;SDS011;641;48.492;9.184;2023-05-07T09:13:19;9.33;;;3.73;;
1296;SDS011;641;48.492;9.184;2023-05-07T09:15:45;9.43;;;3.90;;
1296;SDS011;641;48.492;9.184;2023-05-07T09:18:11;9.90;;;3.70;;
1296;SDS011;641;48.492;9.184;2023-05-07T09:20:37;9.40;;;4.10;;
1296;SDS011;641;48.492;9.184;2023-05-07T09:23:03;10.60;;;4.43;;
1296;SDS011;641;48.492;9.184;2023-05-07T09:25:30;10.77;;;4.70;;
1296;SDS011;641;48.492;9.184;2023-05-07T09:27:56;10.20;;;3.80;;
1296;SDS011;641;48.492;9.184;2023-05-07T09:30:22;12.67;;;4.67;;
1296;SDS011;641;48.492;9.184;2023-05-07T09:32:52;11.77;;;4.37;;
1296;SDS011;641;48.492;9.184;2023-05-07T09:35:18;10.60;;;3.57;;
1296;SDS011;641;48.492;9.184;2023-05-07T09:37:46;8.60;;;3.73;;
1296;SDS011;641;48.492;9.184;2023-05-07T09:43:11;8.63;;;3.90;;
1296;SDS011;641;48.492;9.184;2023-05-07T09:45:38;9.67;;;4.40;;
1296;SDS011;641;48.492;9.184;2023-05-07T09:48:05;9.70;;;3.73;;
1296;SDS011;641;48.492;9.184;2023-05-07T09:50:35;8.63;;;4.00;;
1296;SDS011;641;48.492;9.184;2023-05-07T09:53:05;8.80;;;4.00;;
1296;SDS011;641;48.492;9.184;2023-05-07T09:55:31;8.33;;;4.00;;
1296;SDS011;641;48.492;9.184;2023-05-07T09:57:57;8.60;;;3.47;;
1296;SDS011;641;48.492;9.184;2023-05-07T10:00:24;9.70;;;4.03;;
1296;SDS011;641;48.492;9.184;2023-05-07T10:02:53;10.43;;;3.57;;
1296;SDS011;641;48.492;9.184;2023-05-07T10:05:22;9.77;;;4.07;;
1296;SDS011;641;48.492;9.184;2023-05-07T10:07:48;10.17;;;3.90;;
1296;SDS011;641;48.492;9.184;2023-05-07T10:10:15;12.23;;;3.83;;
1296;SDS011;641;48.492;9.184;2023-05-07T10:12:42;8.27;;;3.00;;
1296;SDS011;641;48.492;9.184;2023-05-07T10:15:08;10.17;;;2.87;;
1296;SDS011;641;48.492;9.184;2023-05-07T10:17:39;7.70;;;2.63;;
1296;SDS011;641;48.492;9.184;2023-05-07T10:20:06;9.17;;;2.90;;
1296;SDS011;641;48.492;9.184;2023-05-07T10:22:41;7.10;;;2.40;;
1296;SDS011;641;48.492;9.184;2023-05-07T10:25:12;7.57;;;2.67;;
1296;SDS011;641;48.492;9.184;2023-05-07T10:27:50;9.90;;;3.80;;
1296;SDS011;641;48.492;9.184;2023-05-07T10:33:13;7.73;;;2.33;;
1296;SDS011;641;48.492;9.184;2023-05-07T10:35:42;7.50;;;2.10;;
1296;SDS011;641;48.492;9.184;2023-05-07T10:38:09;10.30;;;2.40;;
1296;SDS011;641;48.492;9.184;2023-05-07T10:40:35;7.17;;;2.07;;
1296;SDS011;641;48.492;9.184;2023-05-07T10:43:02;7.70;;;2.07;;
1296;SDS011;641;48.492;9.184;2023-05-07T10:45:31;8.13;;;2.30;;
1296;SDS011;641;48.492;9.184;2023-05-07T10:48:13;7.10;;;1.93;;
1296;SDS011;641;48.492;9.184;2023-05-07T10:50:44;8.90;;;2.20;;
1296;SDS011;641;48.492;9.184;2023-05-07T10:55:41;7.20;;;2.50;;
1296;SDS011;641;48.492;9.184;2023-05-07T11:00:46;8.17;;;2.73;;
1296;SDS011;641;48.492;9.184;2023-05-07T11:03:12;7.13;;;2.67;;
1296;SDS011;641;48.492;9.184;2023-05-07T11:05:39;8.20;;;2.23;;
1296;SDS011;641;48.492;9.184;2023-05-07T11:08:05;7.47;;;2.17;;
1296;SDS011;641;48.492;9.184;2023-05-07T11:13:16;7.50;;;2.10;;
1296;SDS011;641;48.492;9.184;2023-05-07T11:15:43;7.60;;;2.20;;
1296;SDS011;641;48.492;9.184;2023-05-07T11:18:10;9.37;;;3.00;;
1296;SDS011;641;48.492;9.184;2023-05-07T11:20:48;12.30;;;2.80;;
1296;SDS011;641;48.492;9.184;2023-05-07T11:26:08;14.20;;;3.60;;
1296;SDS011;641;48.492;9.184;2023-05-07T11:28:38;10.20;;;3.70;;
1296;SDS011;641;48.492;9.184;2023-05-07T11:31:07;21.57;;;4.80;;
1296;SDS011;641;48.492;9.184;2023-05-07T11:33:33;9.63;;;2.97;;
1296;SDS011;641;48.492;9.184;2023-05-07T11:36:00;7.30;;;2.40;;
1296;SDS011;641;48.492;9.184;2023-05-07T11:38:28;13.60;;;2.90;;
1296;SDS011;641;48.492;9.184;2023-05-07T11:40:57;9.07;;;2.70;;
1296;SDS011;641;48.492;9.184;2023-05-07T11:43:27;10.07;;;2.90;;
1296;SDS011;641;48.492;9.184;2023-05-07T11:45:53;10.80;;;3.60;;
1296;SDS011;641;48.492;9.184;2023-05-07T11:48:19;8.63;;;3.40;;
1296;SDS011;641;48.492;9.184;2023-05-07T11:53:35;10.63;;;4.07;;
1296;SDS011;641;48.492;9.184;2023-05-07T11:58:33;7.63;;;3.20;;
1296;SDS011;641;48.492;9.184;2023-05-07T12:00:59;9.73;;;4.30;;
1296;SDS011;641;48.492;9.184;2023-05-07T12:03:24;8.40;;;3.40;;
1296;SDS011;641;48.492;9.184;2023-05-07T12:05:52;12.00;;;4.63;;
1296;SDS011;641;48.492;9.184;2023-05-07T12:08:21;8.90;;;3.50;;
1296;SDS011;641;48.492;9.184;2023-05-07T12:10:48;8.80;;;3.73;;
1296;SDS011;641;48.492;9.184;2023-05-07T12:13:18;10.57;;;3.33;;
1296;SDS011;641;48.492;9.184;2023-05-07T12:15:44;9.80;;;4.17;;
1296;SDS011;641;48.492;9.184;2023-05-07T12:18:14;10.90;;;3.80;;
1296;SDS011;641;48.492;9.184;2023-05-07T12:20:40;9.30;;;4.10;;
1296;SDS011;641;48.492;9.184;2023-05-07T12:23:06;10.20;;;3.77;;
1296;SDS011;641;48.492;9.184;2023-05-07T12:25:35;9.53;;;3.43;;
1296;SDS011;641;48.492;9.184;2023-05-07T12:28:03;8.97;;;3.00;;
1296;SDS011;641;48.492;9.184;2023-05-07T12:30:30;11.13;;;3.40;;
1296;SDS011;641;48.492;9.184;2023-05-07T12:33:02;8.30;;;3.20;;
1296;SDS011;641;48.492;9.184;2023-05-07T12:35:31;8.47;;;3.23;;
1296;SDS011;641;48.492;9.184;2023-05-07T12:38:00;7.83;;;3.30;;
1296;SDS011;641;48.492;9.184;2023-05-07T12:40:36;8.43;;;3.17;;
1296;SDS011;641;48.492;9.184;2023-05-07T12:43:03;7.90;;;3.03;;
1296;SDS011;641;48.492;9.184;2023-05-07T12:45:28;8.60;;;3.70;;
1296;SDS011;641;48.492;9.184;2023-05-07T12:47:54;8.63;;;3.80;;
1296;SDS011;641;48.492;9.184;2023-05-07T12:50:20;12.43;;;6.63;;
1296;SDS011;641;48.492;9.184;2023-05-07T12:52:48;13.10;;;3.97;;
1296;SDS011;641;48.492;9.184;2023-05-07T12:55:16;8.43;;;3.57;;
1296;SDS011;641;48.492;9.184;2023-05-07T12:57:43;11.83;;;3.67;;
1296;SDS011;641;48.492;9.184;2023-05-07T13:00:12;9.30;;;3.07;;
1296;SDS011;641;48.492;9.184;2023-05-07T13:02:39;9.40;;;3.90;;
1296;SDS011;641;48.492;9.184;2023-05-07T13:05:07;8.00;;;2.50;;
1296;SDS011;641;48.492;9.184;2023-05-07T13:07:33;7.53;;;2.60;;
1296;SDS011;641;48.492;9.184;2023-05-07T13:09:59;9.23;;;2.37;;
1296;SDS011;641;48.492;9.184;2023-05-07T13:12:25;7.50;;;2.40;;
1296;SDS011;641;48.492;9.184;2023-05-07T13:14:50;9.63;;;2.03;;
1296;SDS011;641;48.492;9.184;2023-05-07T13:17:16;7.03;;;1.90;;
1296;SDS011;641;48.492;9.184;2023-05-07T13:19:41;10.37;;;2.63;;
1296;SDS011;641;48.492;9.184;2023-05-07T13:22:07;10.23;;;2.90;;
1296;SDS011;641;48.492;9.184;2023-05-07T13:24:32;11.47;;;3.60;;
1296;SDS011;641;48.492;9.184;2023-05-07T13:26:58;11.40;;;3.20;;
1296;SDS011;641;48.492;9.184;2023-05-07T13:29:23;10.23;;;3.70;;
1296;SDS011;641;48.492;9.184;2023-05-07T13:31:53;9.00;;;3.97;;
1296;SDS011;641;48.492;9.184;2023-05-07T13:34:19;12.10;;;4.00;;
1296;SDS011;641;48.492;9.184;2023-05-07T13:36:45;10.33;;;2.90;;
1296;SDS011;641;48.492;9.184;2023-05-07T13:39:10;11.70;;;4.20;;
1296;SDS011;641;48.492;9.184;2023-05-07T13:41:36;12.17;;;4.10;;
1296;SDS011;641;48.492;9.184;2023-05-07T13:44:02;9.00;;;4.00;;
1296;SDS011;641;48.492;9.184;2023-05-07T13:46:27;12.70;;;5.60;;
1296;SDS011;641;48.492;9.184;2023-05-07T13:48:54;9.30;;;3.50;;
1296;SDS011;641;48.492;9.184;2023-05-07T13:51:20;10.50;;;4.13;;
1296;SDS011;641;48.492;9.184;2023-05-07T13:53:46;8.63;;;3.57;;
1296;SDS011;641;48.492;9.184;2023-05-07T13:56:12;10.40;;;4.67;;
1296;SDS011;641;48.492;9.184;2023-05-07T13:58:37;9.60;;;4.03;;
1296;SDS011;641;48.492;9.184;2023-05-07T14:01:03;10.47;;;4.60;;
1296;SDS011;641;48.492;9.184;2023-05-07T14:03:29;12.60;;;4.60;;
1296;SDS011;641;48.492;9.184;2023-05-07T14:05:56;10.73;;;4.10;;
1296;SDS011;641;48.492;9.184;2023-05-07T14:08:22;9.30;;;4.10;;
1296;SDS011;641;48.492;9.184;2023-05-07T14:10:48;9.30;;;4.07;;
1296;SDS011;641;48.492;9.184;2023-05-07T14:13:14;11.93;;;4.00;;
1296;SDS011;641;48.492;9.184;2023-05-07T14:15:39;9.57;;;3.60;;
1296;SDS011;641;48.492;9.184;2023-05-07T14:18:05;11.23;;;3.43;;
1296;SDS011;641;48.492;9.184;2023-05-07T14:20:30;9.70;;;3.77;;
1296;SDS011;641;48.492;9.184;2023-05-07T14:22:56;9.50;;;4.23;;
1296;SDS011;641;48.492;9.184;2023-05-07T14:25:22;12.30;;;4.43;;
1296;SDS011;641;48.492;9.184;2023-05-07T14:27:47;12.43;;;3.93;;
1296;SDS011;641;48.492;9.184;2023-05-07T14:30:13;9.43;;;4.20;;
1296;SDS011;641;48.492;9.184;2023-05-07T14:32:38;12.20;;;5.13;;
1296;SDS011;641;48.492;9.184;2023-05-07T14:35:04;10.13;;;5.07;;
1296;SDS011;641;48.492;9.184;2023-05-07T14:37:30;11.33;;;5.53;;
1296;SDS011;641;48.492;9.184;2023-05-07T14:39:55;10.00;;;5.53;;
1296;SDS011;641;48.492;9.184;2023-05-07T14:42:21;11.93;;;5.83;;
1296;SDS011;641;48.492;9.184;2023-05-07T14:44:46;12.23;;;5.90;;
1296;SDS011;641;48.492;9.184;2023-05-07T14:47:13;10.17;;;4.77;;
1296;SDS011;641;48.492;9.184;2023-05-07T14:49:39;11.10;;;3.93;;
1296;SDS011;641;48.492;9.184;2023-05-07T14:52:05;9.80;;;3.60;;
1296;SDS011;641;48.492;9.184;2023-05-07T14:54:33;8.20;;;3.03;;
1296;SDS011;641;48.492;9.184;2023-05-07T14:57:00;9.63;;;3.57;;
1296;SDS011;641;48.492;9.184;2023-05-07T14:59:26;10.67;;;3.07;;
1296;SDS011;641;48.492;9.184;2023-05-07T15:01:52;10.90;;;3.47;;
1296;SDS011;641;48.492;9.184;2023-05-07T15:04:18;8.20;;;3.70;;
1296;SDS011;641;48.492;9.184;2023-05-07T15:06:44;8.30;;;3.40;;
1296;SDS011;641;48.492;9.184;2023-05-07T15:09:11;12.97;;;4.10;;
1296;SDS011;641;48.492;9.184;2023-05-07T15:11:36;10.17;;;4.00;;
1296;SDS011;641;48.492;9.184;2023-05-07T15:14:02;10.47;;;3.63;;
1296;SDS011;641;48.492;9.184;2023-05-07T15:16:27;9.90;;;4.60;;
1296;SDS011;641;48.492;9.184;2023-05-07T15:18:53;10.83;;;3.40;;
1296;SDS011;641;48.492;9.184;2023-05-07T15:21:18;9.50;;;4.20;;
1296;SDS011;641;48.492;9.184;2023-05-07T15:23:44;10.93;;;4.30;;
1296;SDS011;641;48.492;9.184;2023-05-07T15:26:10;9.33;;;3.90;;
1296;SDS011;641;48.492;9.184;2023-05-07T15:28:36;10.53;;;4.10;;
1296;SDS011;641;48.492;9.184;2023-05-07T15:31:03;9.27;;;3.40;;
1296;SDS011;641;48.492;9.184;2023-05-07T15:33:28;13.30;;;3.47;;
1296;SDS011;641;48.492;9.184;2023-05-07T15:35:54;7.60;;;2.80;;
1296;SDS011;641;48.492;9.184;2023-05-07T15:38:23;7.53;;;3.07;;
1296;SDS011;641;48.492;9.184;2023-05-07T15:40:49;7.97;;;2.77;;
1296;SDS011;641;48.492;9.184;2023-05-07T15:43:15;7.43;;;2.53;;